sensor_id;sensor_type;location;lat;lon;timestamp;P1;durP1;ratioP1;P2;durP2;ratioP2
10461;SDS011;5278;42.656;23.374;2023-06-14T00:00:34;10.50;;;8.03;;
10461;SDS011;5278;42.656;23.374;2023-06-14T00:03:04;9.70;;;7.20;;
10461;SDS011;5278;42.656;23.374;2023-06-14T00:05:35;9.23;;;7.50;;
10461;SDS011;5278;42.656;23.374;2023-06-14T00:08:05;7.57;;;6.87;;
10461;SDS011;5278;42.656;23.374;2023-06-14T00:10:33;10.13;;;7.50;;
10461;SDS011;5278;42.656;23.374;2023-06-14T00:13:00;8.33;;;6.83;;
10461;SDS011;5278;42.656;23.374;2023-06-14T00:15:27;7.40;;;6.63;;
10461;SDS011;5278;42.656;23.374;2023-06-14T00:17:56;7.60;;;6.17;;
10461;SDS011;5278;42.656;23.374;2023-06-14T00:20:25;7.73;;;6.43;;
10461;SDS011;5278;42.656;23.374;2023-06-14T00:22:54;10.70;;;7.57;;
10461;SDS011;5278;42.656;23.374;2023-06-14T00:25:21;7.83;;;7.03;;
10461;SDS011;5278;42.656;23.374;2023-06-14T00:27:49;8.10;;;7.27;;
10461;SDS011;5278;42.656;23.374;2023-06-14T00:30:15;8.73;;;6.93;;
10461;SDS011;5278;42.656;23.374;2023-06-14T00:32:42;8.10;;;6.10;;
10461;SDS011;5278;42.656;23.374;2023-06-14T00:35:10;8.30;;;6.77;;
10461;SDS011;5278;42.656;23.374;2023-06-14T00:37:37;11.13;;;6.43;;
10461;SDS011;5278;42.656;23.374;2023-06-14T00:40:06;8.57;;;6.70;;
10461;SDS011;5278;42.656;23.374;2023-06-14T00:42:33;9.53;;;6.93;;
10461;SDS011;5278;42.656;23.374;2023-06-14T00:45:00;7.70;;;6.80;;
10461;SDS011;5278;42.656;23.374;2023-06-14T00:47:27;8.90;;;6.53;;
10461;SDS011;5278;42.656;23.374;2023-06-14T00:49:54;6.27;;;5.63;;
10461;SDS011;5278;42.656;23.374;2023-06-14T00:52:22;9.03;;;5.77;;
10461;SDS011;5278;42.656;23.374;2023-06-14T00:54:50;11.67;;;6.07;;
10461;SDS011;5278;42.656;23.374;2023-06-14T00:57:18;7.13;;;6.20;;
10461;SDS011;5278;42.656;23.374;2023-06-14T00:59:46;7.87;;;6.50;;
10461;SDS011;5278;42.656;23.374;2023-06-14T01:02:14;7.90;;;5.50;;
10461;SDS011;5278;42.656;23.374;2023-06-14T01:04:43;7.83;;;6.33;;
10461;SDS011;5278;42.656;23.374;2023-06-14T01:07:15;5.57;;;5.07;;
10461;SDS011;5278;42.656;23.374;2023-06-14T01:09:54;6.57;;;5.77;;
10461;SDS011;5278;42.656;23.374;2023-06-14T01:12:31;7.70;;;5.67;;
10461;SDS011;5278;42.656;23.374;2023-06-14T01:15:05;7.80;;;6.20;;
10461;SDS011;5278;42.656;23.374;2023-06-14T01:17:33;9.17;;;5.43;;
10461;SDS011;5278;42.656;23.374;2023-06-14T01:20:10;6.77;;;6.07;;
10461;SDS011;5278;42.656;23.374;2023-06-14T01:22:47;5.20;;;4.70;;
10461;SDS011;5278;42.656;23.374;2023-06-14T01:25:17;8.23;;;5.50;;
10461;SDS011;5278;42.656;23.374;2023-06-14T01:27:45;6.27;;;5.67;;
10461;SDS011;5278;42.656;23.374;2023-06-14T01:30:14;5.67;;;5.07;;
10461;SDS011;5278;42.656;23.374;2023-06-14T01:32:44;7.57;;;5.60;;
10461;SDS011;5278;42.656;23.374;2023-06-14T01:35:12;6.77;;;5.30;;
10461;SDS011;5278;42.656;23.374;2023-06-14T01:37:39;13.13;;;6.70;;
10461;SDS011;5278;42.656;23.374;2023-06-14T01:40:10;8.37;;;5.37;;
10461;SDS011;5278;42.656;23.374;2023-06-14T01:42:38;5.77;;;4.97;;
10461;SDS011;5278;42.656;23.374;2023-06-14T01:45:06;8.77;;;5.63;;
10461;SDS011;5278;42.656;23.374;2023-06-14T01:47:35;6.13;;;5.33;;
10461;SDS011;5278;42.656;23.374;2023-06-14T01:50:03;6.47;;;5.37;;
10461;SDS011;5278;42.656;23.374;2023-06-14T01:52:31;7.20;;;5.57;;
10461;SDS011;5278;42.656;23.374;2023-06-14T01:54:58;10.33;;;6.30;;
10461;SDS011;5278;42.656;23.374;2023-06-14T01:57:29;8.97;;;5.97;;
10461;SDS011;5278;42.656;23.374;2023-06-14T01:59:56;6.87;;;5.53;;
10461;SDS011;5278;42.656;23.374;2023-06-14T02:02:23;7.10;;;5.63;;
10461;SDS011;5278;42.656;23.374;2023-06-14T02:04:52;6.73;;;6.03;;
10461;SDS011;5278;42.656;23.374;2023-06-14T02:07:22;7.30;;;5.80;;
10461;SDS011;5278;42.656;23.374;2023-06-14T02:09:49;7.07;;;5.70;;
10461;SDS011;5278;42.656;23.374;2023-06-14T02:12:16;13.43;;;5.67;;
10461;SDS011;5278;42.656;23.374;2023-06-14T02:14:45;6.50;;;5.80;;
10461;SDS011;5278;42.656;23.374;2023-06-14T02:17:12;11.07;;;6.03;;
10461;SDS011;5278;42.656;23.374;2023-06-14T02:19:39;6.10;;;5.50;;
10461;SDS011;5278;42.656;23.374;2023-06-14T02:22:06;6.63;;;5.10;;
10461;SDS011;5278;42.656;23.374;2023-06-14T02:24:33;6.27;;;5.67;;
10461;SDS011;5278;42.656;23.374;2023-06-14T02:27:00;7.50;;;5.40;;
10461;SDS011;5278;42.656;23.374;2023-06-14T02:29:27;7.97;;;5.60;;
10461;SDS011;5278;42.656;23.374;2023-06-14T02:31:55;6.87;;;5.50;;
10461;SDS011;5278;42.656;23.374;2023-06-14T02:34:22;8.13;;;5.57;;
10461;SDS011;5278;42.656;23.374;2023-06-14T02:36:49;11.33;;;5.60;;
10461;SDS011;5278;42.656;23.374;2023-06-14T02:39:17;6.07;;;5.53;;
10461;SDS011;5278;42.656;23.374;2023-06-14T02:41:45;9.20;;;6.47;;
10461;SDS011;5278;42.656;23.374;2023-06-14T02:44:13;7.27;;;5.60;;
10461;SDS011;5278;42.656;23.374;2023-06-14T02:46:42;7.57;;;5.80;;
10461;SDS011;5278;42.656;23.374;2023-06-14T02:49:12;6.60;;;5.57;;
10461;SDS011;5278;42.656;23.374;2023-06-14T02:51:39;5.80;;;5.20;;
10461;SDS011;5278;42.656;23.374;2023-06-14T02:54:07;6.27;;;5.70;;
10461;SDS011;5278;42.656;23.374;2023-06-14T02:56:34;6.17;;;5.60;;
10461;SDS011;5278;42.656;23.374;2023-06-14T02:59:02;8.13;;;6.37;;
10461;SDS011;5278;42.656;23.374;2023-06-14T03:01:29;8.07;;;5.63;;
10461;SDS011;5278;42.656;23.374;2023-06-14T03:04:00;6.03;;;5.53;;
10461;SDS011;5278;42.656;23.374;2023-06-14T03:06:29;8.40;;;6.10;;
10461;SDS011;5278;42.656;23.374;2023-06-14T03:08:56;6.53;;;5.93;;
10461;SDS011;5278;42.656;23.374;2023-06-14T03:11:25;6.07;;;5.47;;
10461;SDS011;5278;42.656;23.374;2023-06-14T03:13:52;7.70;;;6.17;;
10461;SDS011;5278;42.656;23.374;2023-06-14T03:16:20;6.70;;;6.10;;
10461;SDS011;5278;42.656;23.374;2023-06-14T03:18:49;7.63;;;5.90;;
10461;SDS011;5278;42.656;23.374;2023-06-14T03:21:16;6.83;;;5.40;;
10461;SDS011;5278;42.656;23.374;2023-06-14T03:23:44;6.30;;;5.07;;
10461;SDS011;5278;42.656;23.374;2023-06-14T03:26:11;8.20;;;5.40;;
10461;SDS011;5278;42.656;23.374;2023-06-14T03:28:40;8.47;;;5.33;;
10461;SDS011;5278;42.656;23.374;2023-06-14T03:31:07;6.80;;;6.10;;
10461;SDS011;5278;42.656;23.374;2023-06-14T03:33:34;6.87;;;6.17;;
10461;SDS011;5278;42.656;23.374;2023-06-14T03:36:01;6.53;;;5.40;;
10461;SDS011;5278;42.656;23.374;2023-06-14T03:38:28;11.10;;;6.23;;
10461;SDS011;5278;42.656;23.374;2023-06-14T03:40:57;6.87;;;6.17;;
10461;SDS011;5278;42.656;23.374;2023-06-14T03:43:24;6.80;;;5.83;;
10461;SDS011;5278;42.656;23.374;2023-06-14T03:45:51;8.47;;;5.43;;
10461;SDS011;5278;42.656;23.374;2023-06-14T03:48:18;6.17;;;5.50;;
10461;SDS011;5278;42.656;23.374;2023-06-14T03:50:45;7.63;;;5.83;;
10461;SDS011;5278;42.656;23.374;2023-06-14T03:53:12;6.33;;;5.60;;
10461;SDS011;5278;42.656;23.374;2023-06-14T03:55:39;8.17;;;6.60;;
10461;SDS011;5278;42.656;23.374;2023-06-14T03:58:08;7.47;;;6.67;;
10461;SDS011;5278;42.656;23.374;2023-06-14T04:00:35;13.20;;;7.23;;
10461;SDS011;5278;42.656;23.374;2023-06-14T04:03:02;10.30;;;7.07;;
10461;SDS011;5278;42.656;23.374;2023-06-14T04:05:30;10.90;;;7.50;;
10461;SDS011;5278;42.656;23.374;2023-06-14T04:07:57;8.87;;;6.70;;
10461;SDS011;5278;42.656;23.374;2023-06-14T04:10:26;8.67;;;6.43;;
10461;SDS011;5278;42.656;23.374;2023-06-14T04:12:53;9.63;;;8.67;;
10461;SDS011;5278;42.656;23.374;2023-06-14T04:15:22;7.80;;;6.60;;
10461;SDS011;5278;42.656;23.374;2023-06-14T04:17:49;7.70;;;6.67;;
10461;SDS011;5278;42.656;23.374;2023-06-14T04:20:15;6.90;;;6.00;;
10461;SDS011;5278;42.656;23.374;2023-06-14T04:22:43;7.53;;;6.80;;
10461;SDS011;5278;42.656;23.374;2023-06-14T04:25:10;8.67;;;6.83;;
10461;SDS011;5278;42.656;23.374;2023-06-14T04:27:37;7.70;;;6.00;;
10461;SDS011;5278;42.656;23.374;2023-06-14T04:30:05;8.00;;;6.10;;
10461;SDS011;5278;42.656;23.374;2023-06-14T04:32:34;7.20;;;6.43;;
10461;SDS011;5278;42.656;23.374;2023-06-14T04:35:03;8.77;;;6.07;;
10461;SDS011;5278;42.656;23.374;2023-06-14T04:37:31;8.73;;;7.10;;
10461;SDS011;5278;42.656;23.374;2023-06-14T04:39:58;9.23;;;6.77;;
10461;SDS011;5278;42.656;23.374;2023-06-14T04:42:25;7.13;;;6.43;;
10461;SDS011;5278;42.656;23.374;2023-06-14T04:44:56;6.57;;;5.83;;
10461;SDS011;5278;42.656;23.374;2023-06-14T04:47:23;8.10;;;6.53;;
10461;SDS011;5278;42.656;23.374;2023-06-14T04:49:57;7.97;;;6.70;;
10461;SDS011;5278;42.656;23.374;2023-06-14T04:52:25;12.77;;;8.80;;
10461;SDS011;5278;42.656;23.374;2023-06-14T04:54:54;11.20;;;9.27;;
10461;SDS011;5278;42.656;23.374;2023-06-14T04:57:22;17.60;;;14.37;;
10461;SDS011;5278;42.656;23.374;2023-06-14T04:59:50;14.87;;;13.10;;
10461;SDS011;5278;42.656;23.374;2023-06-14T05:02:20;20.30;;;17.23;;
10461;SDS011;5278;42.656;23.374;2023-06-14T05:04:48;23.87;;;19.27;;
10461;SDS011;5278;42.656;23.374;2023-06-14T05:07:17;18.47;;;16.53;;
10461;SDS011;5278;42.656;23.374;2023-06-14T05:09:45;16.73;;;13.77;;
10461;SDS011;5278;42.656;23.374;2023-06-14T05:12:13;18.70;;;11.67;;
10461;SDS011;5278;42.656;23.374;2023-06-14T05:14:43;12.97;;;10.13;;
10461;SDS011;5278;42.656;23.374;2023-06-14T05:17:12;12.43;;;10.30;;
10461;SDS011;5278;42.656;23.374;2023-06-14T05:19:39;11.70;;;9.83;;
10461;SDS011;5278;42.656;23.374;2023-06-14T05:22:06;10.87;;;9.53;;
10461;SDS011;5278;42.656;23.374;2023-06-14T05:24:34;13.93;;;10.00;;
10461;SDS011;5278;42.656;23.374;2023-06-14T05:27:01;11.70;;;9.20;;
10461;SDS011;5278;42.656;23.374;2023-06-14T05:29:28;13.20;;;9.43;;
10461;SDS011;5278;42.656;23.374;2023-06-14T05:31:55;13.10;;;9.63;;
10461;SDS011;5278;42.656;23.374;2023-06-14T05:34:22;12.63;;;10.33;;
10461;SDS011;5278;42.656;23.374;2023-06-14T05:36:49;13.17;;;10.10;;
10461;SDS011;5278;42.656;23.374;2023-06-14T05:39:16;12.93;;;9.90;;
10461;SDS011;5278;42.656;23.374;2023-06-14T05:41:44;10.40;;;9.40;;
10461;SDS011;5278;42.656;23.374;2023-06-14T05:44:11;10.57;;;9.47;;
10461;SDS011;5278;42.656;23.374;2023-06-14T05:46:39;12.73;;;9.47;;
10461;SDS011;5278;42.656;23.374;2023-06-14T05:49:06;11.70;;;9.47;;
10461;SDS011;5278;42.656;23.374;2023-06-14T05:51:33;10.37;;;8.93;;
10461;SDS011;5278;42.656;23.374;2023-06-14T05:54:01;13.10;;;9.53;;
10461;SDS011;5278;42.656;23.374;2023-06-14T05:56:28;10.60;;;8.10;;
10461;SDS011;5278;42.656;23.374;2023-06-14T05:58:57;10.70;;;8.73;;
10461;SDS011;5278;42.656;23.374;2023-06-14T06:01:23;11.67;;;9.50;;
10461;SDS011;5278;42.656;23.374;2023-06-14T06:03:51;10.60;;;9.20;;
10461;SDS011;5278;42.656;23.374;2023-06-14T06:06:18;12.93;;;9.33;;
10461;SDS011;5278;42.656;23.374;2023-06-14T06:08:45;12.30;;;9.80;;
10461;SDS011;5278;42.656;23.374;2023-06-14T06:11:12;9.90;;;8.37;;
10461;SDS011;5278;42.656;23.374;2023-06-14T06:13:39;13.23;;;10.00;;
10461;SDS011;5278;42.656;23.374;2023-06-14T06:16:08;11.40;;;10.23;;
10461;SDS011;5278;42.656;23.374;2023-06-14T06:18:35;13.33;;;10.40;;
10461;SDS011;5278;42.656;23.374;2023-06-14T06:21:03;11.23;;;10.13;;
10461;SDS011;5278;42.656;23.374;2023-06-14T06:23:30;11.63;;;10.43;;
10461;SDS011;5278;42.656;23.374;2023-06-14T06:25:57;12.53;;;9.73;;
10461;SDS011;5278;42.656;23.374;2023-06-14T06:28:24;13.40;;;10.50;;
10461;SDS011;5278;42.656;23.374;2023-06-14T06:30:51;15.73;;;10.67;;
10461;SDS011;5278;42.656;23.374;2023-06-14T06:33:21;11.87;;;10.50;;
10461;SDS011;5278;42.656;23.374;2023-06-14T06:35:48;12.83;;;10.53;;
10461;SDS011;5278;42.656;23.374;2023-06-14T06:38:15;14.60;;;10.30;;
10461;SDS011;5278;42.656;23.374;2023-06-14T06:40:44;15.77;;;12.93;;
10461;SDS011;5278;42.656;23.374;2023-06-14T06:43:11;13.60;;;10.77;;
10461;SDS011;5278;42.656;23.374;2023-06-14T06:45:38;15.07;;;11.10;;
10461;SDS011;5278;42.656;23.374;2023-06-14T06:48:05;12.27;;;10.87;;
10461;SDS011;5278;42.656;23.374;2023-06-14T06:50:36;13.13;;;10.00;;
10461;SDS011;5278;42.656;23.374;2023-06-14T06:53:03;16.10;;;10.60;;
10461;SDS011;5278;42.656;23.374;2023-06-14T06:55:30;12.47;;;9.90;;
10461;SDS011;5278;42.656;23.374;2023-06-14T06:57:57;12.70;;;11.47;;
10461;SDS011;5278;42.656;23.374;2023-06-14T07:00:25;12.10;;;10.40;;
10461;SDS011;5278;42.656;23.374;2023-06-14T07:02:52;14.03;;;9.23;;
10461;SDS011;5278;42.656;23.374;2023-06-14T07:05:20;19.60;;;10.93;;
10461;SDS011;5278;42.656;23.374;2023-06-14T07:07:49;16.50;;;10.10;;
10461;SDS011;5278;42.656;23.374;2023-06-14T07:10:15;16.33;;;10.03;;
10461;SDS011;5278;42.656;23.374;2023-06-14T07:12:43;11.50;;;10.13;;
10461;SDS011;5278;42.656;23.374;2023-06-14T07:15:10;13.53;;;10.13;;
10461;SDS011;5278;42.656;23.374;2023-06-14T07:17:38;10.43;;;9.33;;
10461;SDS011;5278;42.656;23.374;2023-06-14T07:20:07;12.23;;;10.00;;
10461;SDS011;5278;42.656;23.374;2023-06-14T07:22:38;15.33;;;10.30;;
10461;SDS011;5278;42.656;23.374;2023-06-14T07:25:08;11.50;;;9.97;;
10461;SDS011;5278;42.656;23.374;2023-06-14T07:27:38;13.37;;;10.63;;
10461;SDS011;5278;42.656;23.374;2023-06-14T07:30:06;15.53;;;11.93;;
10461;SDS011;5278;42.656;23.374;2023-06-14T07:32:34;12.70;;;11.40;;
10461;SDS011;5278;42.656;23.374;2023-06-14T07:35:02;14.40;;;11.43;;
10461;SDS011;5278;42.656;23.374;2023-06-14T07:37:30;11.57;;;10.33;;
10461;SDS011;5278;42.656;23.374;2023-06-14T07:39:59;12.10;;;10.90;;
10461;SDS011;5278;42.656;23.374;2023-06-14T07:42:29;11.13;;;10.03;;
10461;SDS011;5278;42.656;23.374;2023-06-14T07:44:57;14.73;;;12.83;;
10461;SDS011;5278;42.656;23.374;2023-06-14T07:47:24;11.67;;;10.47;;
10461;SDS011;5278;42.656;23.374;2023-06-14T07:49:51;13.43;;;12.03;;
10461;SDS011;5278;42.656;23.374;2023-06-14T07:52:18;13.57;;;11.07;;
10461;SDS011;5278;42.656;23.374;2023-06-14T07:54:45;13.27;;;11.87;;
10461;SDS011;5278;42.656;23.374;2023-06-14T07:57:12;14.43;;;11.17;;
10461;SDS011;5278;42.656;23.374;2023-06-14T07:59:41;10.30;;;9.20;;
10461;SDS011;5278;42.656;23.374;2023-06-14T08:02:08;10.67;;;8.53;;
10461;SDS011;5278;42.656;23.374;2023-06-14T08:04:35;11.43;;;9.47;;
10461;SDS011;5278;42.656;23.374;2023-06-14T08:07:02;10.53;;;9.30;;
10461;SDS011;5278;42.656;23.374;2023-06-14T08:09:30;10.80;;;8.77;;
10461;SDS011;5278;42.656;23.374;2023-06-14T08:11:58;14.00;;;9.70;;
10461;SDS011;5278;42.656;23.374;2023-06-14T08:14:25;10.53;;;9.43;;
10461;SDS011;5278;42.656;23.374;2023-06-14T08:16:53;11.90;;;8.93;;
10461;SDS011;5278;42.656;23.374;2023-06-14T08:19:20;12.63;;;8.53;;
10461;SDS011;5278;42.656;23.374;2023-06-14T08:21:47;11.20;;;10.00;;
10461;SDS011;5278;42.656;23.374;2023-06-14T08:24:15;13.77;;;10.13;;
10461;SDS011;5278;42.656;23.374;2023-06-14T08:26:44;9.40;;;8.50;;
10461;SDS011;5278;42.656;23.374;2023-06-14T08:29:11;12.35;;;11.05;;
10461;SDS011;5278;42.656;23.374;2023-06-14T08:31:38;10.98;;;9.88;;
10461;SDS011;5278;42.656;23.374;2023-06-14T08:34:07;9.40;;;8.50;;
10461;SDS011;5278;42.656;23.374;2023-06-14T08:36:34;9.73;;;8.73;;
10461;SDS011;5278;42.656;23.374;2023-06-14T08:39:04;11.03;;;9.43;;
10461;SDS011;5278;42.656;23.374;2023-06-14T08:41:31;12.60;;;9.83;;
10461;SDS011;5278;42.656;23.374;2023-06-14T08:43:59;11.40;;;8.73;;
10461;SDS011;5278;42.656;23.374;2023-06-14T08:46:26;10.33;;;8.83;;
10461;SDS011;5278;42.656;23.374;2023-06-14T08:48:54;11.67;;;10.53;;
10461;SDS011;5278;42.656;23.374;2023-06-14T08:51:24;11.83;;;9.20;;
10461;SDS011;5278;42.656;23.374;2023-06-14T08:53:52;9.57;;;7.77;;
10461;SDS011;5278;42.656;23.374;2023-06-14T08:56:23;9.63;;;8.00;;
10461;SDS011;5278;42.656;23.374;2023-06-14T08:58:52;10.63;;;8.80;;
10461;SDS011;5278;42.656;23.374;2023-06-14T09:01:21;10.53;;;9.03;;
10461;SDS011;5278;42.656;23.374;2023-06-14T09:03:49;9.60;;;8.68;;
10461;SDS011;5278;42.656;23.374;2023-06-14T09:06:17;9.80;;;8.80;;
10461;SDS011;5278;42.656;23.374;2023-06-14T09:08:49;10.00;;;8.10;;
10461;SDS011;5278;42.656;23.374;2023-06-14T09:11:17;9.37;;;8.47;;
10461;SDS011;5278;42.656;23.374;2023-06-14T09:13:45;13.07;;;9.57;;
10461;SDS011;5278;42.656;23.374;2023-06-14T09:16:13;13.00;;;9.87;;
10461;SDS011;5278;42.656;23.374;2023-06-14T09:18:40;15.50;;;10.23;;
10461;SDS011;5278;42.656;23.374;2023-06-14T09:21:09;14.17;;;9.80;;
10461;SDS011;5278;42.656;23.374;2023-06-14T09:23:38;10.77;;;9.20;;
10461;SDS011;5278;42.656;23.374;2023-06-14T09:26:08;19.03;;;9.23;;
10461;SDS011;5278;42.656;23.374;2023-06-14T09:28:36;11.13;;;10.07;;
10461;SDS011;5278;42.656;23.374;2023-06-14T09:31:07;14.37;;;10.27;;
10461;SDS011;5278;42.656;23.374;2023-06-14T09:33:35;10.93;;;9.93;;
10461;SDS011;5278;42.656;23.374;2023-06-14T09:36:02;11.27;;;10.07;;
10461;SDS011;5278;42.656;23.374;2023-06-14T09:38:29;11.47;;;10.37;;
10461;SDS011;5278;42.656;23.374;2023-06-14T09:40:57;13.53;;;10.50;;
10461;SDS011;5278;42.656;23.374;2023-06-14T09:43:26;10.80;;;9.37;;
10461;SDS011;5278;42.656;23.374;2023-06-14T09:45:53;12.53;;;10.07;;
10461;SDS011;5278;42.656;23.374;2023-06-14T09:48:20;10.80;;;9.70;;
10461;SDS011;5278;42.656;23.374;2023-06-14T09:50:47;12.10;;;9.67;;
10461;SDS011;5278;42.656;23.374;2023-06-14T09:53:17;12.57;;;9.90;;
10461;SDS011;5278;42.656;23.374;2023-06-14T09:55:48;21.83;;;11.13;;
10461;SDS011;5278;42.656;23.374;2023-06-14T09:58:16;11.10;;;9.50;;
10461;SDS011;5278;42.656;23.374;2023-06-14T10:00:47;11.40;;;9.60;;
10461;SDS011;5278;42.656;23.374;2023-06-14T10:03:19;12.13;;;9.87;;
10461;SDS011;5278;42.656;23.374;2023-06-14T10:05:50;10.30;;;9.30;;
10461;SDS011;5278;42.656;23.374;2023-06-14T10:08:19;12.73;;;9.33;;
10461;SDS011;5278;42.656;23.374;2023-06-14T10:10:50;8.97;;;8.07;;
10461;SDS011;5278;42.656;23.374;2023-06-14T10:13:18;9.35;;;8.20;;
10461;SDS011;5278;42.656;23.374;2023-06-14T10:15:50;12.32;;;9.52;;
10461;SDS011;5278;42.656;23.374;2023-06-14T10:18:27;9.70;;;8.57;;
10461;SDS011;5278;42.656;23.374;2023-06-14T10:21:02;8.77;;;7.82;;
10461;SDS011;5278;42.656;23.374;2023-06-14T10:23:36;12.52;;;11.43;;
10461;SDS011;5278;42.656;23.374;2023-06-14T10:26:07;8.32;;;7.53;;
10461;SDS011;5278;42.656;23.374;2023-06-14T10:28:34;7.57;;;6.88;;
10461;SDS011;5278;42.656;23.374;2023-06-14T10:31:06;8.95;;;8.15;;
10461;SDS011;5278;42.656;23.374;2023-06-14T10:33:39;8.10;;;7.32;;
10461;SDS011;5278;42.656;23.374;2023-06-14T10:36:27;9.27;;;8.38;;
10461;SDS011;5278;42.656;23.374;2023-06-14T10:38:59;8.75;;;7.85;;
10461;SDS011;5278;42.656;23.374;2023-06-14T10:41:28;8.57;;;7.85;;
10461;SDS011;5278;42.656;23.374;2023-06-14T10:47:07;10.65;;;8.55;;
10461;SDS011;5278;42.656;23.374;2023-06-14T10:49:37;8.55;;;7.75;;
10461;SDS011;5278;42.656;23.374;2023-06-14T10:52:16;12.00;;;10.80;;
10461;SDS011;5278;42.656;23.374;2023-06-14T10:57:31;10.23;;;8.48;;
10461;SDS011;5278;42.656;23.374;2023-06-14T10:59:59;23.40;;;16.88;;
10461;SDS011;5278;42.656;23.374;2023-06-14T11:02:43;16.30;;;14.48;;
10461;SDS011;5278;42.656;23.374;2023-06-14T11:05:16;11.90;;;10.02;;
10461;SDS011;5278;42.656;23.374;2023-06-14T11:07:55;8.90;;;7.47;;
10461;SDS011;5278;42.656;23.374;2023-06-14T11:10:38;12.10;;;10.52;;
10461;SDS011;5278;42.656;23.374;2023-06-14T11:13:06;9.35;;;8.45;;
10461;SDS011;5278;42.656;23.374;2023-06-14T11:15:35;8.70;;;8.00;;
10461;SDS011;5278;42.656;23.374;2023-06-14T11:18:05;10.25;;;6.90;;
10461;SDS011;5278;42.656;23.374;2023-06-14T11:20:34;8.25;;;7.55;;
10461;SDS011;5278;42.656;23.374;2023-06-14T11:23:03;15.75;;;12.07;;
10461;SDS011;5278;42.656;23.374;2023-06-14T11:25:30;9.52;;;8.52;;
10461;SDS011;5278;42.656;23.374;2023-06-14T11:27:57;11.10;;;9.48;;
10461;SDS011;5278;42.656;23.374;2023-06-14T11:30:25;10.00;;;8.67;;
10461;SDS011;5278;42.656;23.374;2023-06-14T11:32:52;8.40;;;7.60;;
10461;SDS011;5278;42.656;23.374;2023-06-14T11:35:22;10.27;;;7.80;;
10461;SDS011;5278;42.656;23.374;2023-06-14T11:37:52;8.17;;;7.37;;
10461;SDS011;5278;42.656;23.374;2023-06-14T11:40:22;8.47;;;7.13;;
10461;SDS011;5278;42.656;23.374;2023-06-14T11:42:54;7.23;;;6.53;;
10461;SDS011;5278;42.656;23.374;2023-06-14T11:45:25;6.43;;;5.93;;
10461;SDS011;5278;42.656;23.374;2023-06-14T11:47:53;7.60;;;6.90;;
10461;SDS011;5278;42.656;23.374;2023-06-14T11:50:23;8.23;;;6.70;;
10461;SDS011;5278;42.656;23.374;2023-06-14T11:52:53;6.17;;;5.67;;
10461;SDS011;5278;42.656;23.374;2023-06-14T11:55:20;7.13;;;6.27;;
10461;SDS011;5278;42.656;23.374;2023-06-14T11:57:47;8.33;;;6.37;;
10461;SDS011;5278;42.656;23.374;2023-06-14T12:00:15;6.67;;;6.07;;
10461;SDS011;5278;42.656;23.374;2023-06-14T12:02:51;10.10;;;5.80;;
10461;SDS011;5278;42.656;23.374;2023-06-14T12:05:20;5.63;;;4.93;;
10461;SDS011;5278;42.656;23.374;2023-06-14T12:07:49;5.97;;;5.40;;
10461;SDS011;5278;42.656;23.374;2023-06-14T12:10:18;6.13;;;5.53;;
10461;SDS011;5278;42.656;23.374;2023-06-14T12:12:45;5.70;;;5.30;;
10461;SDS011;5278;42.656;23.374;2023-06-14T12:15:12;5.90;;;5.37;;
10461;SDS011;5278;42.656;23.374;2023-06-14T12:17:39;6.30;;;5.70;;
10461;SDS011;5278;42.656;23.374;2023-06-14T12:20:09;6.80;;;6.10;;
10461;SDS011;5278;42.656;23.374;2023-06-14T12:22:39;6.23;;;5.47;;
10461;SDS011;5278;42.656;23.374;2023-06-14T12:25:24;6.00;;;5.50;;
10461;SDS011;5278;42.656;23.374;2023-06-14T12:27:56;5.97;;;5.47;;
10461;SDS011;5278;42.656;23.374;2023-06-14T12:30:26;6.70;;;6.10;;
10461;SDS011;5278;42.656;23.374;2023-06-14T12:32:53;6.03;;;5.47;;
10461;SDS011;5278;42.656;23.374;2023-06-14T12:35:19;17.30;;;6.63;;
10461;SDS011;5278;42.656;23.374;2023-06-14T12:37:46;6.93;;;6.23;;
10461;SDS011;5278;42.656;23.374;2023-06-14T12:40:13;6.40;;;5.80;;
10461;SDS011;5278;42.656;23.374;2023-06-14T12:42:44;6.40;;;5.80;;
10461;SDS011;5278;42.656;23.374;2023-06-14T12:45:12;8.77;;;6.33;;
10461;SDS011;5278;42.656;23.374;2023-06-14T12:47:41;7.13;;;6.43;;
10461;SDS011;5278;42.656;23.374;2023-06-14T12:50:08;8.30;;;6.63;;
10461;SDS011;5278;42.656;23.374;2023-06-14T12:52:35;6.30;;;5.80;;
10461;SDS011;5278;42.656;23.374;2023-06-14T12:55:03;5.93;;;5.13;;
10461;SDS011;5278;42.656;23.374;2023-06-14T12:57:30;6.43;;;5.83;;
10461;SDS011;5278;42.656;23.374;2023-06-14T12:59:59;6.60;;;5.90;;
10461;SDS011;5278;42.656;23.374;2023-06-14T13:02:26;5.93;;;5.33;;
10461;SDS011;5278;42.656;23.374;2023-06-14T13:04:54;6.10;;;5.57;;
10461;SDS011;5278;42.656;23.374;2023-06-14T13:07:23;7.30;;;6.00;;
10461;SDS011;5278;42.656;23.374;2023-06-14T13:09:50;7.07;;;6.37;;
10461;SDS011;5278;42.656;23.374;2023-06-14T13:12:17;7.63;;;6.93;;
10461;SDS011;5278;42.656;23.374;2023-06-14T13:14:46;7.10;;;6.40;;
10461;SDS011;5278;42.656;23.374;2023-06-14T13:17:15;8.77;;;7.97;;
10461;SDS011;5278;42.656;23.374;2023-06-14T13:19:42;10.40;;;7.23;;
10461;SDS011;5278;42.656;23.374;2023-06-14T13:22:09;7.63;;;6.80;;
10461;SDS011;5278;42.656;23.374;2023-06-14T13:24:36;10.73;;;8.17;;
10461;SDS011;5278;42.656;23.374;2023-06-14T13:27:03;10.47;;;8.57;;
10461;SDS011;5278;42.656;23.374;2023-06-14T13:29:30;8.23;;;6.73;;
10461;SDS011;5278;42.656;23.374;2023-06-14T13:32:00;6.73;;;6.03;;
10461;SDS011;5278;42.656;23.374;2023-06-14T13:34:29;6.73;;;6.13;;
10461;SDS011;5278;42.656;23.374;2023-06-14T13:36:56;7.90;;;6.70;;
10461;SDS011;5278;42.656;23.374;2023-06-14T13:39:24;8.70;;;7.23;;
10461;SDS011;5278;42.656;23.374;2023-06-14T13:41:51;9.63;;;7.40;;
10461;SDS011;5278;42.656;23.374;2023-06-14T13:44:18;11.27;;;8.30;;
10461;SDS011;5278;42.656;23.374;2023-06-14T13:46:46;7.63;;;6.80;;
10461;SDS011;5278;42.656;23.374;2023-06-14T13:49:13;7.90;;;7.10;;
10461;SDS011;5278;42.656;23.374;2023-06-14T13:51:41;8.27;;;7.47;;
10461;SDS011;5278;42.656;23.374;2023-06-14T13:54:08;9.03;;;7.17;;
10461;SDS011;5278;42.656;23.374;2023-06-14T13:56:35;7.50;;;6.73;;
10461;SDS011;5278;42.656;23.374;2023-06-14T13:59:03;7.70;;;6.50;;
10461;SDS011;5278;42.656;23.374;2023-06-14T14:01:29;7.67;;;6.87;;
10461;SDS011;5278;42.656;23.374;2023-06-14T14:03:56;6.47;;;5.87;;
10461;SDS011;5278;42.656;23.374;2023-06-14T14:06:23;8.67;;;6.97;;
10461;SDS011;5278;42.656;23.374;2023-06-14T14:08:53;8.27;;;6.00;;
10461;SDS011;5278;42.656;23.374;2023-06-14T14:11:19;7.70;;;6.47;;
10461;SDS011;5278;42.656;23.374;2023-06-14T14:13:47;6.90;;;6.20;;
10461;SDS011;5278;42.656;23.374;2023-06-14T14:16:14;6.93;;;6.23;;
10461;SDS011;5278;42.656;23.374;2023-06-14T14:18:41;7.10;;;6.00;;
10461;SDS011;5278;42.656;23.374;2023-06-14T14:21:08;7.73;;;6.87;;
10461;SDS011;5278;42.656;23.374;2023-06-14T14:23:35;6.80;;;5.67;;
10461;SDS011;5278;42.656;23.374;2023-06-14T14:26:03;6.73;;;5.87;;
10461;SDS011;5278;42.656;23.374;2023-06-14T14:28:30;6.70;;;6.00;;
10461;SDS011;5278;42.656;23.374;2023-06-14T14:30:57;8.37;;;7.03;;
10461;SDS011;5278;42.656;23.374;2023-06-14T14:33:25;6.23;;;5.73;;
10461;SDS011;5278;42.656;23.374;2023-06-14T14:35:52;6.93;;;6.20;;
10461;SDS011;5278;42.656;23.374;2023-06-14T14:38:18;9.27;;;6.53;;
10461;SDS011;5278;42.656;23.374;2023-06-14T14:40:47;9.23;;;7.73;;
10461;SDS011;5278;42.656;23.374;2023-06-14T14:43:15;7.97;;;7.17;;
10461;SDS011;5278;42.656;23.374;2023-06-14T14:45:42;8.43;;;7.57;;
10461;SDS011;5278;42.656;23.374;2023-06-14T14:48:09;9.13;;;7.13;;
10461;SDS011;5278;42.656;23.374;2023-06-14T14:50:36;9.53;;;6.73;;
10461;SDS011;5278;42.656;23.374;2023-06-14T14:53:04;8.00;;;6.20;;